createdAt,value
2018-10-21T00:00:42.811Z,99841.47
2018-10-21T00:03:11.956Z,99839.86
2018-10-21T00:05:41.012Z,99836.34
2018-10-21T00:08:10.080Z,99830.86
2018-10-21T00:10:39.213Z,99828.20
2018-10-21T00:13:08.251Z,99830.27
2018-10-21T00:15:37.562Z,99832.08
2018-10-21T00:18:06.685Z,99823.54
2018-10-21T00:20:35.804Z,99823.82
2018-10-21T00:23:05.120Z,99828.27
2018-10-21T00:25:34.089Z,99822.57
2018-10-21T00:28:03.245Z,99821.61
2018-10-21T00:30:32.630Z,99821.69
2018-10-21T00:33:01.568Z,99826.14
2018-10-21T00:35:30.439Z,99822.47
2018-10-21T00:37:59.536Z,99825.31
2018-10-21T00:40:28.718Z,99825.87
2018-10-21T00:42:57.782Z,99824.92
2018-10-21T00:45:27.168Z,99822.67
2018-10-21T00:47:56.199Z,99824.29
2018-10-21T00:50:25.121Z,99819.55
2018-10-21T00:52:54.647Z,99819.81
2018-10-21T00:55:23.824Z,99825.31
2018-10-21T00:57:53.063Z,99816.20
2018-10-21T01:00:22.169Z,99815.85
2018-10-21T01:02:51.360Z,99813.95
2018-10-21T01:05:20.426Z,99806.94
2018-10-21T01:07:49.532Z,99813.41
2018-10-21T01:10:18.588Z,99813.70
2018-10-21T01:12:47.701Z,99813.39
2018-10-21T01:15:17.037Z,99815.22
2018-10-21T01:17:45.991Z,99817.20
2018-10-21T01:20:14.852Z,99811.62
2018-10-21T01:22:43.852Z,99819.92
2018-10-21T01:25:12.913Z,99822.09
2018-10-21T01:27:42.556Z,99822.01
2018-10-21T01:30:12.892Z,99821.53
2018-10-21T01:32:41.845Z,99819.39
2018-10-21T01:35:11.021Z,99824.88
2018-10-21T01:37:40.146Z,99818.53
2018-10-21T01:40:41.478Z,99815.78
2018-10-21T01:43:12.140Z,99817.33
2018-10-21T01:45:41.095Z,99816.26
2018-10-21T01:48:11.135Z,99814.27
2018-10-21T01:50:40.332Z,99812.91
2018-10-21T01:53:10.442Z,99815.09
2018-10-21T01:55:39.546Z,99813.07
2018-10-21T01:58:09.131Z,99809.09
2018-10-21T02:00:38.673Z,99809.95
2018-10-21T02:03:07.683Z,99809.47
2018-10-21T02:05:37.355Z,99812.03
2018-10-21T02:08:06.665Z,99808.62
2018-10-21T02:10:35.864Z,99805.30
2018-10-21T02:13:04.800Z,99809.47
2018-10-21T02:15:33.901Z,99799.84
2018-10-21T02:18:03.129Z,99801.25
2018-10-21T02:20:32.405Z,99804.09
2018-10-21T02:23:01.433Z,99808.05
2018-10-21T02:25:30.595Z,99807.58
2018-10-21T02:27:59.572Z,99805.15
2018-10-21T02:30:29.740Z,99805.88
2018-10-21T02:33:01.380Z,99803.03
2018-10-21T02:35:31.906Z,99806.85
2018-10-21T02:38:02.214Z,99803.95
2018-10-21T02:41:55.623Z,99803.28
2018-10-21T02:44:30.561Z,99808.20
2018-10-21T02:46:59.687Z,99804.52
2018-10-21T02:49:28.739Z,99797.77
2018-10-21T02:52:03.289Z,99800.98
2018-10-21T02:54:32.752Z,99802.69
2018-10-21T02:57:01.872Z,99809.88
2018-10-21T02:59:31.319Z,99809.70
2018-10-21T03:02:00.389Z,99806.19
2018-10-21T03:04:29.461Z,99811.97
2018-10-21T03:06:58.876Z,99816.86
2018-10-21T03:09:28.306Z,99814.52
2018-10-21T03:11:57.334Z,99817.75
2018-10-21T03:14:26.572Z,99826.99
2018-10-21T03:16:55.711Z,99819.89
2018-10-21T03:19:24.641Z,99818.96
2018-10-21T03:21:53.840Z,99815.89
2018-10-21T03:24:22.848Z,99817.12
2018-10-21T03:26:52.034Z,99817.08
2018-10-21T03:29:21.422Z,99825.68
2018-10-21T03:31:50.500Z,99822.13
2018-10-21T03:34:19.552Z,99828.27
2018-10-21T03:36:48.568Z,99830.21
2018-10-21T03:39:17.528Z,99832.66
2018-10-21T03:41:46.431Z,99822.62
2018-10-21T03:44:15.883Z,99830.63
2018-10-21T03:46:44.833Z,99825.91
2018-10-21T03:49:13.991Z,99827.80
2018-10-21T03:51:43.349Z,99825.75
2018-10-21T03:54:12.425Z,99824.96
2018-10-21T03:56:41.508Z,99824.78
2018-10-21T03:59:11.043Z,99828.78
2018-10-21T04:01:40.056Z,99828.33
2018-10-21T04:04:09.213Z,99828.63
2018-10-21T04:06:38.529Z,99822.83
2018-10-21T04:09:07.992Z,99824.94
2018-10-21T04:11:37.064Z,99830.38
2018-10-21T04:14:06.413Z,99831.00
2018-10-21T04:16:35.496Z,99831.81
2018-10-21T04:19:04.550Z,99838.95
2018-10-21T04:21:33.568Z,99839.38
2018-10-21T04:24:02.611Z,99837.75
2018-10-21T04:26:31.523Z,99837.30
2018-10-21T04:29:00.585Z,99832.83
2018-10-21T04:31:29.625Z,99832.61
2018-10-21T04:33:58.868Z,99837.90
2018-10-21T04:36:30.054Z,99834.34
2018-10-21T04:40:11.561Z,99833.07
2018-10-21T04:42:40.742Z,99840.87
2018-10-21T04:45:10.615Z,99842.39
2018-10-21T04:47:39.608Z,99848.40
2018-10-21T04:50:09.730Z,99846.77
2018-10-21T04:52:38.753Z,99846.52
2018-10-21T04:55:10.734Z,99841.62
2018-10-21T04:57:41.003Z,99847.16
2018-10-21T05:00:12.672Z,99852.20
2018-10-21T05:02:41.730Z,99844.21
2018-10-21T05:05:12.215Z,99845.83
2018-10-21T05:07:41.447Z,99851.28
2018-10-21T05:10:18.968Z,99848.95
2018-10-21T05:12:48.024Z,99849.50
2018-10-21T05:15:17.250Z,99851.26
2018-10-21T05:17:46.216Z,99848.40
2018-10-21T05:20:19.451Z,99853.77
2018-10-21T05:22:56.926Z,99851.97
2018-10-21T05:25:35.000Z,99861.77
2018-10-21T05:28:12.747Z,99858.57
2018-10-21T05:30:43.986Z,99859.33
2018-10-21T05:33:14.296Z,99856.75
2018-10-21T05:35:44.714Z,99856.30
2018-10-21T05:38:15.448Z,99852.77
2018-10-21T05:40:47.387Z,99858.27
2018-10-21T05:43:19.062Z,99866.19
2018-10-21T05:45:48.248Z,99857.65
2018-10-21T05:48:17.442Z,99862.30
2018-10-21T05:50:46.743Z,99864.53
2018-10-21T05:53:15.663Z,99866.70
2018-10-21T05:55:44.760Z,99871.38
2018-10-21T05:58:14.385Z,99874.66
2018-10-21T06:00:44.990Z,99874.48
2018-10-21T06:03:14.250Z,99876.13
2018-10-21T06:05:46.700Z,99875.20
2018-10-21T06:08:17.017Z,99870.12
2018-10-21T06:10:49.253Z,99869.27
2018-10-21T06:13:19.610Z,99869.59
2018-10-21T06:15:48.589Z,99876.55
2018-10-21T06:18:22.984Z,99875.16
2018-10-21T06:20:54.525Z,99878.02
2018-10-21T06:23:23.796Z,99879.35
2018-10-21T06:25:52.915Z,99877.48
2018-10-21T06:28:21.900Z,99881.58
2018-10-21T06:30:51.066Z,99872.37
2018-10-21T06:33:19.933Z,99877.78
2018-10-21T06:35:48.877Z,99873.26
2018-10-21T06:38:19.673Z,99870.04
2018-10-21T06:40:48.636Z,99874.31
2018-10-21T06:43:17.732Z,99865.83
2018-10-21T06:45:46.910Z,99877.42
2018-10-21T06:48:16.110Z,99873.96
2018-10-21T06:50:45.122Z,99869.75
2018-10-21T06:53:14.716Z,99877.78
2018-10-21T06:55:44.208Z,99870.53
2018-10-21T06:58:13.220Z,99870.95
2018-10-21T07:00:42.545Z,99869.92
2018-10-21T07:03:11.594Z,99871.92
2018-10-21T07:06:19.074Z,99869.89
2018-10-21T07:08:49.259Z,99866.13
2018-10-21T07:11:18.596Z,99866.50
2018-10-21T07:13:47.999Z,99868.17
2018-10-21T07:16:17.141Z,99866.21
2018-10-21T07:18:47.251Z,99867.40
2018-10-21T07:21:16.873Z,99863.02
2018-10-21T07:23:46.250Z,99865.50
2018-10-21T07:26:15.326Z,99865.79
2018-10-21T07:28:44.589Z,99862.30
2018-10-21T07:31:13.641Z,99863.33
2018-10-21T07:33:42.702Z,99860.55
2018-10-21T07:36:12.099Z,99861.02
2018-10-21T07:38:40.949Z,99863.28
2018-10-21T07:41:09.944Z,99864.02
2018-10-21T07:43:39.001Z,99857.41
2018-10-21T07:46:08.201Z,99856.14
2018-10-21T07:48:37.236Z,99856.13
2018-10-21T07:51:07.676Z,99855.41
2018-10-21T07:53:36.755Z,99852.60
2018-10-21T07:56:05.946Z,99843.39
2018-10-21T07:58:35.525Z,99842.36
2018-10-21T08:01:04.709Z,99837.06
2018-10-21T08:03:33.880Z,99834.70
2018-10-21T08:06:29.213Z,99835.31
2018-10-21T08:08:58.881Z,99833.09
2018-10-21T08:11:28.186Z,99833.26
2018-10-21T08:13:57.551Z,99835.94
2018-10-21T08:16:26.534Z,99837.99
2018-10-21T08:18:55.672Z,99836.65
2018-10-21T08:21:25.006Z,99837.14
2018-10-21T08:23:54.017Z,99835.22
2018-10-21T08:26:23.080Z,99833.77
2018-10-21T08:28:52.520Z,99830.95
2018-10-21T08:31:21.987Z,99829.02
2018-10-21T08:33:51.148Z,99827.07
2018-10-21T08:36:20.604Z,99821.47
2018-10-21T08:38:49.541Z,99820.50
2018-10-21T08:41:18.661Z,99823.29
2018-10-21T08:43:47.988Z,99819.15
2018-10-21T08:46:17.037Z,99823.75
2018-10-21T08:48:46.017Z,99822.08
2018-10-21T08:51:15.253Z,99820.73
2018-10-21T08:53:44.269Z,99817.21
2018-10-21T08:56:13.345Z,99819.30
2018-10-21T08:58:42.753Z,99817.21
2018-10-21T09:01:11.727Z,99815.75
2018-10-21T09:03:40.666Z,99814.30
2018-10-21T09:06:09.797Z,99807.95
2018-10-21T09:08:39.098Z,99811.05
2018-10-21T09:11:08.170Z,99809.22
2018-10-21T09:13:37.152Z,99810.56
2018-10-21T09:16:06.232Z,99808.91
2018-10-21T09:18:35.204Z,99804.76
2018-10-21T09:21:04.581Z,99809.48
2018-10-21T09:23:33.709Z,99806.45
2018-10-21T09:26:02.725Z,99808.55
2018-10-21T09:28:32.214Z,99805.80
2018-10-21T09:31:01.276Z,99805.26
2018-10-21T09:33:30.404Z,99799.55
2018-10-21T09:35:59.981Z,99792.77
2018-10-21T09:38:29.026Z,99785.05
2018-10-21T09:40:58.137Z,99784.02
2018-10-21T09:43:27.333Z,99783.58
2018-10-21T09:45:56.432Z,99772.78
2018-10-21T09:48:25.901Z,99774.47
2018-10-21T09:50:54.971Z,99777.75
2018-10-21T09:53:24.103Z,99772.43
2018-10-21T09:55:53.264Z,99775.26
2018-10-21T09:58:22.574Z,99773.67
2018-10-21T10:00:56.654Z,99768.80
2018-10-21T10:03:25.833Z,99767.45
2018-10-21T10:05:54.885Z,99769.38
2018-10-21T10:08:24.115Z,99760.61
2018-10-21T10:10:53.091Z,99755.17
2018-10-21T10:13:22.221Z,99754.55
2018-10-21T10:15:51.214Z,99755.50
2018-10-21T10:18:20.462Z,99749.48
2018-10-21T10:20:49.403Z,99740.17
2018-10-21T10:23:18.619Z,99740.84
2018-10-21T10:25:47.691Z,99739.34
2018-10-21T10:28:16.822Z,99737.94
2018-10-21T10:30:45.804Z,99734.27
2018-10-21T10:33:15.056Z,99728.59
2018-10-21T10:35:44.105Z,99726.48
2018-10-21T10:38:13.132Z,99715.80
2018-10-21T10:40:42.552Z,99715.36
2018-10-21T10:43:11.765Z,99706.38
2018-10-21T10:45:40.840Z,99706.81
2018-10-21T10:48:10.095Z,99705.44
2018-10-21T10:50:39.274Z,99699.06
2018-10-21T10:53:08.420Z,99697.38
2018-10-21T10:55:42.580Z,99698.56
2018-10-21T11:00:48.932Z,99699.02
2018-10-21T11:03:17.934Z,99698.61
2018-10-21T11:07:16.645Z,99697.64
2018-10-21T11:09:45.613Z,99689.45
2018-10-21T11:12:14.718Z,99695.72
2018-10-21T11:14:44.199Z,99694.91
2018-10-21T11:17:13.079Z,99697.04
2018-10-21T11:19:42.116Z,99696.53
2018-10-21T11:22:11.471Z,99690.99
2018-10-21T11:24:48.407Z,99686.27
2018-10-21T11:27:18.172Z,99684.94
2018-10-21T11:29:48.503Z,99697.72
2018-10-21T11:32:17.489Z,99688.27
2018-10-21T11:34:46.533Z,99687.22
2018-10-21T11:37:15.511Z,99685.30
2018-10-21T11:40:47.119Z,99683.18
2018-10-21T11:43:16.165Z,99679.21
2018-10-21T11:45:45.421Z,99674.91
2018-10-21T11:48:14.347Z,99682.00
2018-10-21T11:50:43.579Z,99682.84
2018-10-21T11:53:12.684Z,99682.25
2018-10-21T11:55:43.113Z,99686.19
2018-10-21T11:58:13.415Z,99683.27
2018-10-21T12:00:43.588Z,99682.84
2018-10-21T12:03:13.055Z,99688.47
2018-10-21T12:05:42.872Z,99690.00
2018-10-21T12:08:12.345Z,99678.18
2018-10-21T12:10:41.521Z,99679.34
2018-10-21T12:13:10.503Z,99684.12
2018-10-21T12:15:39.733Z,99690.31
2018-10-21T12:18:10.140Z,99683.90
2018-10-21T12:20:39.883Z,99683.73
2018-10-21T12:23:09.038Z,99678.37
2018-10-21T12:25:39.114Z,99678.17
2018-10-21T12:28:08.747Z,99686.22
2018-10-21T12:30:37.707Z,99676.94
2018-10-21T12:33:06.936Z,99681.14
2018-10-21T12:35:35.855Z,99679.67
2018-10-21T12:38:05.016Z,99677.05
2018-10-21T12:40:34.085Z,99683.52
2018-10-21T12:43:03.268Z,99684.41
2018-10-21T12:45:32.452Z,99680.17
2018-10-21T12:48:01.289Z,99685.62
2018-10-21T12:50:30.834Z,99679.70
2018-10-21T12:52:59.789Z,99692.55
2018-10-21T12:55:28.784Z,99690.92
2018-10-21T12:57:57.986Z,99688.76
2018-10-21T13:00:26.962Z,99693.93
2018-10-21T13:02:56.082Z,99697.38
2018-10-21T13:05:25.483Z,99690.11
2018-10-21T13:07:54.474Z,99696.87
2018-10-21T13:10:23.565Z,99686.13
2018-10-21T13:12:52.911Z,99687.27
2018-10-21T13:15:21.861Z,99690.73
2018-10-21T13:17:50.848Z,99688.06
2018-10-21T13:20:20.038Z,99693.98
2018-10-21T13:22:49.078Z,99681.01
2018-10-21T13:25:18.374Z,99688.01
2018-10-21T13:27:47.439Z,99686.91
2018-10-21T13:30:16.565Z,99693.28
2018-10-21T13:32:45.599Z,99689.12
2018-10-21T13:35:14.913Z,99691.56
2018-10-21T13:37:43.952Z,99695.45
2018-10-21T13:40:13.120Z,99690.45
2018-10-21T13:42:42.282Z,99689.09
2018-10-21T13:45:11.248Z,99691.02
2018-10-21T13:47:40.509Z,99685.08
2018-10-21T13:52:43.733Z,99682.12
2018-10-21T13:55:13.293Z,99692.64
2018-10-21T13:57:42.471Z,99685.92
2018-10-21T14:00:11.636Z,99693.61
2018-10-21T14:02:40.849Z,99692.90
2018-10-21T14:05:10.729Z,99689.16
2018-10-21T14:07:40.059Z,99691.60
2018-10-21T14:10:10.495Z,99690.36
2018-10-21T14:12:39.501Z,99698.23
2018-10-21T14:15:08.769Z,99698.52
2018-10-21T14:17:37.643Z,99696.57
2018-10-21T14:20:08.102Z,99702.11
2018-10-21T14:22:37.131Z,99704.16
2018-10-21T14:25:07.097Z,99705.17
2018-10-21T14:27:36.263Z,99700.91
2018-10-21T14:30:07.542Z,99708.48
2018-10-21T14:32:37.293Z,99708.34
2018-10-21T14:35:08.808Z,99704.42
2018-10-21T14:37:38.323Z,99708.00
2018-10-21T14:40:10.206Z,99716.32
2018-10-21T14:42:39.809Z,99712.90
2018-10-21T14:45:11.045Z,99714.23
2018-10-21T14:47:40.658Z,99709.78
2018-10-21T14:50:12.488Z,99722.06
2018-10-21T14:52:41.583Z,99717.73
2018-10-21T14:55:11.463Z,99718.85
2018-10-21T14:57:40.888Z,99721.95
2018-10-21T15:00:11.636Z,99717.40
2018-10-21T15:02:40.894Z,99726.40
2018-10-21T15:05:11.977Z,99726.04
2018-10-21T15:07:42.152Z,99728.58
2018-10-21T15:10:11.976Z,99740.20
2018-10-21T15:12:41.156Z,99740.39
2018-10-21T15:15:11.009Z,99740.66
2018-10-21T15:17:40.038Z,99753.33
2018-10-21T15:20:11.632Z,99754.25
2018-10-21T15:22:40.749Z,99764.84
2018-10-21T15:25:11.400Z,99763.27
2018-10-21T15:27:40.841Z,99758.65
2018-10-21T15:30:10.819Z,99769.85
2018-10-21T15:32:40.347Z,99769.98
2018-10-21T15:35:09.960Z,99768.99
2018-10-21T15:37:39.066Z,99776.39
2018-10-21T15:40:10.157Z,99778.20
2018-10-21T15:42:39.141Z,99791.16
2018-10-21T15:45:11.903Z,99788.46
2018-10-21T15:47:41.130Z,99790.73
2018-10-21T15:50:10.457Z,99799.96
2018-10-21T15:52:39.758Z,99801.30
2018-10-21T15:55:09.448Z,99809.63
2018-10-21T15:57:38.380Z,99805.02
2018-10-21T16:00:10.090Z,99804.87
2018-10-21T16:02:39.113Z,99805.59
2018-10-21T16:05:09.460Z,99817.44
2018-10-21T16:07:38.510Z,99811.98
2018-10-21T16:10:08.626Z,99814.72
2018-10-21T16:12:37.939Z,99821.88
2018-10-21T16:15:11.594Z,99822.72
2018-10-21T16:17:40.565Z,99822.48
2018-10-21T16:20:09.897Z,99830.73
2018-10-21T16:22:40.294Z,99836.19
2018-10-21T16:25:13.101Z,99839.41
2018-10-21T16:27:42.633Z,99838.67
2018-10-21T16:30:14.027Z,99844.62
2018-10-21T16:32:48.274Z,99848.98
2018-10-21T16:35:17.603Z,99849.33
2018-10-21T16:37:46.629Z,99854.80
2018-10-21T16:40:16.804Z,99851.83
2018-10-21T16:42:45.866Z,99853.22
2018-10-21T16:45:15.562Z,99850.91
2018-10-21T16:47:44.648Z,99850.27
2018-10-21T16:50:15.579Z,99849.33
2018-10-21T16:52:45.457Z,99850.18
2018-10-21T16:55:15.720Z,99856.61
2018-10-21T16:57:44.643Z,99856.55
2018-10-21T17:00:19.245Z,99862.98
2018-10-21T17:02:48.276Z,99861.48
2018-10-21T17:05:17.264Z,99864.25
2018-10-21T17:07:46.441Z,99869.05
2018-10-21T17:10:15.756Z,99876.80
2018-10-21T17:12:44.748Z,99871.81
2018-10-21T17:15:14.185Z,99875.81
2018-10-21T17:17:43.765Z,99877.28
2018-10-21T17:20:14.635Z,99877.16
2018-10-21T17:22:44.027Z,99874.98
2018-10-21T17:25:13.309Z,99872.62
2018-10-21T17:27:42.679Z,99874.98
2018-10-21T17:30:14.387Z,99874.75
2018-10-21T17:32:44.380Z,99870.50
2018-10-21T17:35:14.522Z,99868.80
2018-10-21T17:37:43.495Z,99871.22
2018-10-21T17:40:13.686Z,99875.05
2018-10-21T17:42:42.741Z,99879.37
2018-10-21T17:45:14.253Z,99873.07
2018-10-21T17:47:43.547Z,99874.40
2018-10-21T17:50:14.050Z,99877.69
2018-10-21T17:52:43.545Z,99881.74
2018-10-21T17:55:12.638Z,99886.70
2018-10-21T17:57:41.646Z,99893.59
2018-10-21T18:00:12.354Z,99897.14
2018-10-21T18:02:41.446Z,99900.41
2018-10-21T18:05:12.322Z,99897.73
2018-10-21T18:07:42.155Z,99907.18
2018-10-21T18:10:11.865Z,99909.25
2018-10-21T18:12:40.695Z,99916.06
2018-10-21T18:15:11.287Z,99920.17
2018-10-21T18:17:40.794Z,99921.73
2018-10-21T18:20:11.743Z,99924.77
2018-10-21T18:22:40.702Z,99937.23
2018-10-21T18:25:10.311Z,99926.56
2018-10-21T18:27:39.869Z,99929.23
2018-10-21T18:30:10.513Z,99936.71
2018-10-21T18:32:39.479Z,99938.90
2018-10-21T18:35:10.327Z,99940.53
2018-10-21T18:37:39.488Z,99949.56
2018-10-21T18:41:38.298Z,99946.96
2018-10-21T18:44:07.736Z,99954.30
2018-10-21T18:46:36.713Z,99959.53
2018-10-21T18:49:06.182Z,99955.62
2018-10-21T18:51:35.138Z,99958.11
2018-10-21T18:54:04.330Z,99959.74
2018-10-21T18:56:33.802Z,99958.03
2018-10-21T18:59:02.857Z,99964.38
2018-10-21T19:01:31.956Z,99969.08
2018-10-21T19:04:01.313Z,99971.00
2018-10-21T19:06:30.367Z,99970.45
2018-10-21T19:08:59.336Z,99971.48
2018-10-21T19:11:28.797Z,99975.97
2018-10-21T19:13:57.831Z,99973.48
2018-10-21T19:16:26.820Z,99977.30
2018-10-21T19:18:56.469Z,99981.56
2018-10-21T19:21:25.405Z,99984.74
2018-10-21T19:23:54.425Z,99978.82
2018-10-21T19:26:23.737Z,99981.67
2018-10-21T19:28:52.725Z,99987.89
2018-10-21T19:31:21.877Z,99989.34
2018-10-21T19:33:51.302Z,99988.16
2018-10-21T19:36:20.489Z,99993.77
2018-10-21T19:38:49.518Z,100003.78
2018-10-21T19:41:18.534Z,99996.74
2018-10-21T19:43:47.508Z,100004.78
2018-10-21T19:46:16.658Z,100012.11
2018-10-21T19:48:45.784Z,100007.30
2018-10-21T19:51:14.796Z,100016.77
2018-10-21T19:53:43.826Z,100017.55
2018-10-21T19:56:13.039Z,100025.95
2018-10-21T19:58:42.166Z,100027.27
2018-10-21T20:01:11.261Z,100028.34
2018-10-21T20:03:40.237Z,100033.37
2018-10-21T20:06:09.496Z,100037.49
2018-10-21T20:08:38.568Z,100034.78
2018-10-21T20:11:08.032Z,100036.11
2018-10-21T20:13:37.006Z,100043.73
2018-10-21T20:16:06.074Z,100048.24
2018-10-21T20:18:35.599Z,100050.92
2018-10-21T20:21:05.040Z,100052.97
2018-10-21T20:23:33.853Z,100047.27
2018-10-21T20:26:03.420Z,100054.84
2018-10-21T20:28:32.343Z,100055.54
2018-10-21T20:31:01.537Z,100050.80
2018-10-21T20:33:30.577Z,100056.63
2018-10-21T20:35:59.629Z,100055.23
2018-10-21T20:38:28.761Z,100051.81
2018-10-21T20:40:58.207Z,100052.80
2018-10-21T20:43:27.308Z,100049.45
2018-10-21T20:45:56.369Z,100048.02
2018-10-21T20:48:25.532Z,100049.25
2018-10-21T20:50:54.676Z,100049.94
2018-10-21T20:53:24.349Z,100048.91
2018-10-21T20:55:53.407Z,100043.09
2018-10-21T20:58:22.701Z,100047.94
2018-10-21T21:00:51.677Z,100046.14
2018-10-21T21:03:21.223Z,100052.77
2018-10-21T21:05:50.313Z,100052.97
2018-10-21T21:08:19.686Z,100058.56
2018-10-21T21:10:49.324Z,100056.97
2018-10-21T21:13:18.441Z,100056.56
2018-10-21T21:15:47.405Z,100059.80
2018-10-21T21:18:17.193Z,100058.09
2018-10-21T21:20:46.154Z,100052.88
2018-10-21T21:23:14.981Z,100052.39
2018-10-21T21:25:44.307Z,100057.06
2018-10-21T21:28:13.394Z,100052.30
2018-10-21T21:30:42.573Z,100055.05
2018-10-21T21:33:11.679Z,100055.53
2018-10-21T21:35:40.789Z,100052.69
2018-10-21T21:38:09.811Z,100051.73
2018-10-21T21:40:39.247Z,100056.58
2018-10-21T21:43:08.269Z,100059.98
2018-10-21T21:45:37.384Z,100066.26
2018-10-21T21:48:06.962Z,100065.41
2018-10-21T21:50:36.063Z,100060.11
2018-10-21T21:53:05.353Z,100065.69
2018-10-21T21:55:34.446Z,100064.84
2018-10-21T21:58:03.490Z,100058.39
2018-10-21T22:00:32.641Z,100062.87
2018-10-21T22:03:01.971Z,100062.39
2018-10-21T22:05:31.148Z,100065.11
2018-10-21T22:08:00.244Z,100065.79
2018-10-21T22:10:29.852Z,100066.84
2018-10-21T22:12:58.946Z,100073.75
2018-10-21T22:15:28.124Z,100070.33
2018-10-21T22:17:57.223Z,100067.41
2018-10-21T22:20:26.395Z,100069.50
2018-10-21T22:22:55.354Z,100066.84
2018-10-21T22:25:24.801Z,100074.16
2018-10-21T22:27:53.854Z,100069.48
2018-10-21T22:30:22.869Z,100068.05
2018-10-21T22:32:52.102Z,100071.84
2018-10-21T22:35:21.454Z,100071.74
2018-10-21T22:37:50.504Z,100071.20
2018-10-21T22:40:20.092Z,100077.84
2018-10-21T22:42:49.245Z,100077.08
2018-10-21T22:45:18.392Z,100083.06
2018-10-21T22:47:47.979Z,100081.90
2018-10-21T22:50:17.168Z,100087.53
2018-10-21T22:52:46.495Z,100087.34
2018-10-21T22:55:15.926Z,100087.99
2018-10-21T22:57:44.992Z,100085.72
2018-10-21T23:00:14.099Z,100093.63
2018-10-21T23:02:43.290Z,100096.34
2018-10-21T23:05:12.572Z,100093.78
2018-10-21T23:07:41.692Z,100097.98
2018-10-21T23:10:11.041Z,100097.87
2018-10-21T23:12:40.025Z,100099.30
2018-10-21T23:15:09.000Z,100101.41
2018-10-21T23:17:38.677Z,100102.26
2018-10-21T23:20:08.283Z,100104.06
2018-10-21T23:22:37.226Z,100103.47
2018-10-21T23:25:07.893Z,100100.91
2018-10-21T23:27:36.983Z,100103.78
2018-10-21T23:30:07.327Z,100106.89
2018-10-21T23:32:36.294Z,100111.53
2018-10-21T23:35:05.668Z,100111.72
2018-10-21T23:37:34.914Z,100108.20
2018-10-21T23:40:04.387Z,100104.22
2018-10-21T23:42:33.514Z,100110.95
2018-10-21T23:45:02.910Z,100102.63
2018-10-21T23:47:31.916Z,100105.47
2018-10-21T23:50:00.956Z,100106.42
2018-10-21T23:52:30.229Z,100105.64
2018-10-21T23:54:59.378Z,100102.60
2018-10-21T23:57:28.549Z,100107.25
2018-10-21T23:59:57.847Z,100099.18
